createdAt,value
2017-06-16T00:00:27.196Z,88.00
2017-06-16T00:02:54.677Z,88.80
2017-06-16T00:05:25.067Z,88.40
2017-06-16T00:07:58.201Z,88.90
2017-06-16T00:13:00.775Z,90.20
2017-06-16T00:15:27.321Z,90.10
2017-06-16T00:17:54.585Z,90.00
2017-06-16T00:20:20.936Z,90.00
2017-06-16T00:22:48.274Z,89.90
2017-06-16T00:25:15.003Z,90.10
2017-06-16T00:27:41.446Z,90.30
2017-06-16T00:30:07.822Z,90.00
2017-06-16T00:32:34.093Z,89.20
2017-06-16T00:35:00.442Z,90.20
2017-06-16T00:37:27.710Z,90.10
2017-06-16T00:39:55.014Z,90.00
2017-06-16T00:42:21.560Z,90.10
2017-06-16T00:44:53.992Z,90.30
2017-06-16T00:47:24.054Z,90.30
2017-06-16T00:49:50.391Z,90.30
2017-06-16T00:52:17.156Z,90.40
2017-06-16T01:00:11.467Z,91.10
2017-06-16T01:02:37.798Z,90.60
2017-06-16T01:07:40.817Z,90.40
2017-06-16T01:10:07.579Z,90.70
2017-06-16T01:12:41.251Z,90.90
2017-06-16T01:21:37.188Z,91.00
2017-06-16T01:44:26.569Z,91.40
2017-06-16T01:46:52.937Z,91.40
2017-06-16T01:49:19.379Z,91.30
2017-06-16T01:51:46.579Z,91.20
2017-06-16T01:54:12.915Z,91.30
2017-06-16T01:56:40.459Z,91.30
2017-06-16T01:59:07.353Z,91.40
2017-06-16T02:01:36.563Z,91.40
2017-06-16T02:09:22.407Z,91.60
2017-06-16T02:37:54.058Z,92.00
2017-06-16T02:40:21.522Z,92.10
2017-06-16T02:45:25.661Z,92.10
2017-06-16T02:48:11.767Z,91.90
2017-06-16T02:50:39.797Z,92.10
2017-06-16T02:53:07.237Z,92.10
2017-06-16T02:55:33.857Z,91.80
2017-06-16T02:58:00.221Z,91.80
2017-06-16T03:00:26.683Z,91.90
2017-06-16T03:02:54.751Z,91.90
2017-06-16T03:05:21.165Z,92.10
2017-06-16T03:07:47.497Z,92.00
2017-06-16T03:10:14.279Z,91.90
2017-06-16T03:12:40.654Z,91.80
2017-06-16T03:15:08.634Z,92.10
2017-06-16T03:17:34.910Z,92.10
2017-06-16T03:20:01.186Z,92.00
2017-06-16T03:22:34.375Z,91.90
2017-06-16T03:25:00.642Z,91.90
2017-06-16T03:27:26.842Z,91.70
2017-06-16T03:29:53.048Z,91.30
2017-06-16T03:32:19.238Z,91.20
2017-06-16T03:34:45.450Z,91.30
2017-06-16T03:37:11.651Z,91.40
2017-06-16T03:40:19.316Z,91.10
2017-06-16T03:42:45.871Z,91.10
2017-06-16T03:45:12.434Z,91.10
2017-06-16T03:47:38.999Z,91.20
2017-06-16T03:50:05.615Z,91.30
2017-06-16T03:52:32.049Z,91.30
2017-06-16T03:54:58.662Z,91.20
2017-06-16T03:57:25.165Z,91.30
2017-06-16T03:59:52.108Z,91.20
2017-06-16T04:02:18.545Z,90.90
2017-06-16T04:04:44.980Z,91.00
2017-06-16T04:07:12.212Z,90.80
2017-06-16T04:09:38.728Z,91.00
2017-06-16T04:12:05.184Z,90.50
2017-06-16T04:14:31.668Z,90.90
2017-06-16T04:16:58.422Z,90.80
2017-06-16T04:19:24.964Z,90.50
2017-06-16T04:21:51.394Z,90.40
2017-06-16T04:24:17.977Z,90.10
2017-06-16T04:26:44.444Z,90.40
2017-06-16T04:29:10.991Z,90.50
2017-06-16T04:31:37.654Z,90.70
2017-06-16T04:34:04.092Z,90.50
2017-06-16T04:36:31.215Z,90.30
2017-06-16T04:38:57.839Z,90.30
2017-06-16T04:41:25.061Z,90.50
2017-06-16T04:43:51.571Z,90.40
2017-06-16T04:46:17.981Z,90.30
2017-06-16T04:48:44.416Z,90.00
2017-06-16T04:51:10.944Z,89.70
2017-06-16T04:53:37.390Z,89.70
2017-06-16T04:56:04.573Z,89.80
2017-06-16T04:58:31.009Z,89.80
2017-06-16T05:00:58.242Z,89.90
2017-06-16T05:03:24.754Z,89.80
2017-06-16T05:05:51.214Z,89.80
2017-06-16T05:08:17.770Z,89.80
2017-06-16T05:10:44.394Z,89.10
2017-06-16T05:13:10.884Z,88.90
2017-06-16T05:15:37.546Z,88.70
2017-06-16T05:18:04.105Z,88.70
2017-06-16T05:20:30.669Z,88.80
2017-06-16T05:23:03.129Z,88.70
2017-06-16T05:25:29.575Z,88.20
2017-06-16T05:27:56.063Z,87.80
2017-06-16T05:30:22.551Z,87.80
2017-06-16T05:32:49.021Z,87.40
2017-06-16T05:35:15.491Z,87.40
2017-06-16T05:37:41.965Z,87.10
2017-06-16T05:40:29.753Z,87.40
2017-06-16T05:42:56.261Z,87.30
2017-06-16T05:45:23.555Z,87.20
2017-06-16T05:47:50.720Z,87.10
2017-06-16T05:50:18.812Z,87.70
2017-06-16T05:52:46.097Z,87.80
2017-06-16T05:55:13.780Z,87.70
2017-06-16T05:57:40.334Z,88.00
2017-06-16T06:00:06.778Z,87.20
2017-06-16T06:02:33.968Z,85.00
2017-06-16T06:05:00.598Z,84.90
2017-06-16T06:07:27.799Z,83.80
2017-06-16T06:09:54.252Z,84.00
2017-06-16T06:12:21.028Z,83.60
2017-06-16T06:14:48.914Z,82.80
2017-06-16T06:17:17.860Z,82.60
2017-06-16T06:19:44.781Z,83.50
2017-06-16T06:22:11.648Z,82.00
2017-06-16T06:24:38.615Z,79.80
2017-06-16T06:27:05.479Z,80.30
2017-06-16T06:29:35.873Z,78.80
2017-06-16T06:32:03.669Z,75.50
2017-06-16T06:34:31.903Z,72.10
2017-06-16T06:36:59.181Z,69.00
2017-06-16T06:39:27.851Z,68.70
2017-06-16T06:41:54.956Z,67.90
2017-06-16T06:44:22.237Z,67.50
2017-06-16T06:46:49.305Z,66.70
2017-06-16T06:49:15.960Z,66.70
2017-06-16T06:51:42.520Z,66.80
2017-06-16T06:54:10.100Z,66.80
2017-06-16T06:56:36.658Z,63.30
2017-06-16T06:59:04.552Z,62.30
2017-06-16T07:01:31.822Z,60.80
2017-06-16T07:03:59.202Z,61.20
2017-06-16T07:06:27.139Z,61.30
2017-06-16T07:08:53.633Z,61.50
2017-06-16T07:11:20.899Z,64.40
2017-06-16T07:13:48.551Z,65.50
2017-06-16T07:16:16.881Z,65.50
2017-06-16T07:18:45.302Z,59.50
2017-06-16T07:21:13.605Z,59.40
2017-06-16T07:23:42.201Z,57.20
2017-06-16T07:26:09.343Z,56.10
2017-06-16T07:28:36.339Z,55.10
2017-06-16T07:31:02.967Z,53.40
2017-06-16T07:33:30.173Z,49.90
2017-06-16T07:35:58.430Z,47.40
2017-06-16T07:38:25.005Z,46.70
2017-06-16T07:40:53.426Z,42.60
2017-06-16T07:43:20.108Z,42.60
2017-06-16T07:45:46.646Z,42.30
2017-06-16T07:48:29.008Z,41.80
2017-06-16T07:50:56.129Z,42.90
2017-06-16T07:53:24.950Z,44.10
2017-06-16T07:55:52.006Z,46.20
2017-06-16T07:58:19.688Z,47.10
2017-06-16T08:00:46.666Z,46.00
2017-06-16T08:03:13.158Z,45.60
2017-06-16T08:05:40.073Z,44.70
2017-06-16T08:08:06.537Z,43.00
2017-06-16T08:10:33.031Z,41.00
2017-06-16T08:12:59.671Z,39.60
2017-06-16T08:15:26.143Z,39.00
2017-06-16T08:17:53.159Z,37.70
2017-06-16T08:20:19.841Z,35.90
2017-06-16T08:22:46.502Z,35.70
2017-06-16T08:25:12.975Z,35.70
2017-06-16T08:27:39.514Z,36.90
2017-06-16T08:30:05.977Z,37.90
2017-06-16T08:32:32.461Z,39.50
2017-06-16T08:34:58.939Z,40.40
2017-06-16T08:37:25.408Z,40.50
2017-06-16T08:39:52.004Z,41.20
2017-06-16T08:42:18.442Z,42.50
2017-06-16T08:44:45.712Z,44.10
2017-06-16T08:47:13.006Z,46.50
2017-06-16T08:49:39.564Z,46.40
2017-06-16T08:52:06.122Z,48.20
2017-06-16T08:54:33.426Z,52.40
2017-06-16T08:56:59.991Z,52.30
2017-06-16T08:59:26.516Z,53.70
2017-06-16T09:01:53.074Z,54.30
2017-06-16T09:04:19.620Z,54.40
2017-06-16T09:06:46.823Z,53.40
2017-06-16T09:09:13.263Z,53.40
2017-06-16T09:11:40.127Z,53.40
2017-06-16T09:14:06.533Z,53.10
2017-06-16T09:16:33.327Z,52.20
2017-06-16T09:19:00.583Z,49.10
2017-06-16T09:21:27.047Z,49.10
2017-06-16T09:23:53.632Z,48.90
2017-06-16T09:26:20.191Z,48.30
2017-06-16T09:28:46.751Z,47.90
2017-06-16T09:31:13.309Z,47.70
2017-06-16T09:33:39.746Z,48.30
2017-06-16T09:36:07.044Z,47.70
2017-06-16T09:38:33.482Z,47.70
2017-06-16T09:41:00.768Z,47.50
2017-06-16T09:43:27.384Z,47.50
2017-06-16T09:45:53.820Z,47.90
2017-06-16T09:48:21.164Z,52.00
2017-06-16T09:50:47.592Z,54.90
2017-06-16T09:53:14.072Z,56.70
2017-06-16T09:55:40.552Z,59.70
2017-06-16T09:58:07.007Z,59.10
2017-06-16T10:00:33.461Z,61.50
2017-06-16T10:03:00.053Z,64.50
2017-06-16T10:05:26.528Z,65.30
2017-06-16T10:07:52.972Z,65.50
2017-06-16T10:10:19.404Z,66.60
2017-06-16T10:12:45.977Z,67.60
2017-06-16T10:15:12.485Z,66.80
2017-06-16T10:17:39.105Z,66.30
2017-06-16T10:20:05.575Z,66.50
2017-06-16T10:22:32.466Z,67.90
2017-06-16T10:24:58.935Z,70.30
2017-06-16T10:27:25.358Z,70.70
2017-06-16T10:29:52.655Z,68.30
2017-06-16T10:32:19.199Z,68.30
2017-06-16T10:34:45.680Z,65.70
2017-06-16T10:37:12.296Z,64.30
2017-06-16T10:39:38.803Z,64.00
2017-06-16T10:42:05.350Z,63.80
2017-06-16T10:44:32.003Z,63.60
2017-06-16T10:46:58.728Z,63.20
2017-06-16T10:49:25.189Z,61.20
2017-06-16T10:51:51.865Z,60.00
2017-06-16T10:54:19.070Z,59.30
2017-06-16T10:56:45.525Z,59.20
2017-06-16T10:59:12.409Z,58.70
2017-06-16T11:01:39.033Z,58.50
2017-06-16T11:04:05.500Z,57.40
2017-06-16T11:06:31.963Z,56.80
2017-06-16T11:08:58.514Z,56.80
2017-06-16T11:11:25.175Z,54.70
2017-06-16T11:13:52.493Z,53.50
2017-06-16T11:16:19.076Z,53.40
2017-06-16T11:18:45.532Z,51.90
2017-06-16T11:21:12.292Z,52.20
2017-06-16T11:23:38.720Z,50.60
2017-06-16T11:26:05.178Z,48.20
2017-06-16T11:28:31.756Z,48.10
2017-06-16T11:31:13.146Z,47.00
2017-06-16T11:33:39.747Z,46.20
2017-06-16T11:36:06.406Z,47.50
2017-06-16T11:38:32.962Z,47.20
2017-06-16T11:40:59.407Z,47.90
2017-06-16T11:43:26.999Z,46.30
2017-06-16T11:45:53.452Z,46.30
2017-06-16T11:48:20.007Z,45.60
2017-06-16T11:50:46.778Z,45.20
2017-06-16T11:53:13.398Z,45.50
2017-06-16T11:55:40.827Z,46.00
2017-06-16T11:58:07.523Z,46.60
2017-06-16T12:00:34.339Z,45.80
2017-06-16T12:03:00.804Z,45.60
2017-06-16T12:05:27.544Z,45.70
2017-06-16T12:07:54.985Z,44.30
2017-06-16T12:10:22.011Z,44.30
2017-06-16T12:12:49.069Z,44.30
2017-06-16T12:15:16.555Z,46.30
2017-06-16T12:17:45.039Z,46.30
2017-06-16T12:20:12.275Z,47.20
2017-06-16T12:22:38.888Z,47.10
2017-06-16T12:25:05.451Z,48.10
2017-06-16T12:27:31.986Z,49.50
2017-06-16T12:29:59.202Z,50.10
2017-06-16T12:32:25.702Z,50.00
2017-06-16T12:34:52.190Z,49.30
2017-06-16T12:37:18.875Z,49.20
2017-06-16T12:39:45.364Z,49.50
2017-06-16T12:42:11.975Z,49.00
2017-06-16T12:44:39.019Z,45.50
2017-06-16T12:47:06.394Z,45.30
2017-06-16T12:49:32.858Z,45.30
2017-06-16T12:52:00.066Z,45.00
2017-06-16T12:54:26.693Z,45.00
2017-06-16T12:56:53.862Z,46.50
2017-06-16T12:59:21.053Z,46.30
2017-06-16T13:01:47.557Z,46.30
2017-06-16T13:04:14.098Z,46.70
2017-06-16T13:06:40.623Z,46.40
2017-06-16T13:09:07.055Z,46.20
2017-06-16T13:11:33.546Z,45.90
2017-06-16T13:14:00.046Z,46.20
2017-06-16T13:16:26.552Z,46.10
2017-06-16T13:18:53.017Z,46.10
2017-06-16T13:21:19.472Z,46.30
2017-06-16T13:23:45.956Z,47.00
2017-06-16T13:26:12.481Z,46.50
2017-06-16T13:28:38.918Z,45.50
2017-06-16T13:31:06.275Z,45.30
2017-06-16T13:33:32.766Z,45.20
2017-06-16T13:35:59.490Z,45.60
2017-06-16T13:38:26.091Z,45.10
2017-06-16T13:40:52.646Z,45.10
2017-06-16T13:43:19.410Z,45.30
2017-06-16T13:45:45.969Z,46.00
2017-06-16T13:48:12.537Z,45.40
2017-06-16T13:50:39.001Z,45.60
2017-06-16T13:53:06.119Z,45.70
2017-06-16T13:55:32.713Z,45.90
2017-06-16T13:57:59.241Z,46.00
2017-06-16T14:00:25.691Z,46.00
2017-06-16T14:02:52.402Z,47.80
2017-06-16T14:05:18.853Z,48.50
2017-06-16T14:07:45.304Z,52.90
2017-06-16T14:10:12.866Z,55.60
2017-06-16T14:12:40.043Z,60.20
2017-06-16T14:15:07.350Z,61.40
2017-06-16T14:17:33.812Z,61.40
2017-06-16T14:20:00.446Z,62.20
2017-06-16T14:22:26.918Z,64.10
2017-06-16T14:24:53.413Z,63.60
2017-06-16T14:27:20.018Z,62.20
2017-06-16T14:29:46.577Z,62.90
2017-06-16T14:32:13.088Z,63.10
2017-06-16T14:34:39.888Z,63.70
2017-06-16T14:37:07.273Z,63.20
2017-06-16T14:39:33.833Z,62.30
2017-06-16T14:42:00.303Z,62.30
2017-06-16T14:44:26.847Z,62.10
2017-06-16T14:46:54.838Z,62.10
2017-06-16T14:49:22.112Z,62.20
2017-06-16T14:51:48.980Z,61.70
2017-06-16T14:54:17.864Z,61.70
2017-06-16T14:56:45.240Z,61.80
2017-06-16T14:59:11.929Z,62.20
2017-06-16T15:01:38.550Z,61.20
2017-06-16T15:04:05.326Z,60.60
2017-06-16T15:06:32.629Z,60.50
2017-06-16T15:08:59.562Z,60.40
2017-06-16T15:11:26.150Z,59.10
2017-06-16T15:13:52.707Z,58.00
2017-06-16T15:16:19.675Z,56.10
2017-06-16T15:18:46.541Z,55.00
2017-06-16T15:21:19.267Z,54.30
2017-06-16T15:23:46.019Z,52.30
2017-06-16T15:26:12.870Z,50.30
2017-06-16T15:28:39.355Z,49.30
2017-06-16T15:31:05.815Z,48.40
2017-06-16T15:33:33.412Z,49.00
2017-06-16T15:36:00.023Z,49.10
2017-06-16T15:38:26.532Z,49.30
2017-06-16T15:40:53.050Z,49.00
2017-06-16T15:43:19.578Z,49.00
2017-06-16T15:45:46.108Z,49.20
2017-06-16T15:48:12.708Z,49.70
2017-06-16T15:50:39.208Z,49.40
2017-06-16T15:53:05.858Z,49.60
2017-06-16T15:55:32.614Z,49.80
2017-06-16T15:57:59.210Z,50.60
2017-06-16T16:00:26.434Z,47.80
2017-06-16T16:02:52.987Z,47.70
2017-06-16T16:05:19.662Z,46.80
2017-06-16T16:07:46.914Z,46.60
2017-06-16T16:10:13.682Z,45.90
2017-06-16T16:12:40.516Z,46.40
2017-06-16T16:15:06.985Z,46.10
2017-06-16T16:17:33.635Z,45.50
2017-06-16T16:20:00.839Z,46.70
2017-06-16T16:22:27.317Z,46.60
2017-06-16T16:24:54.009Z,46.90
2017-06-16T16:27:21.069Z,47.20
2017-06-16T16:29:47.992Z,47.40
2017-06-16T16:32:14.473Z,48.00
2017-06-16T16:34:42.122Z,48.60
2017-06-16T16:37:09.072Z,49.00
2017-06-16T16:39:36.854Z,49.60
2017-06-16T16:42:03.436Z,49.50
2017-06-16T16:44:30.243Z,49.80
2017-06-16T16:46:58.806Z,51.50
2017-06-16T16:49:25.554Z,51.40
2017-06-16T16:51:53.777Z,50.70
2017-06-16T16:54:20.631Z,50.60
2017-06-16T16:56:47.100Z,51.10
2017-06-16T16:59:13.556Z,52.30
2017-06-16T17:01:40.302Z,52.70
2017-06-16T17:04:06.803Z,52.30
2017-06-16T17:06:33.317Z,52.10
2017-06-16T17:09:00.129Z,52.00
2017-06-16T17:11:27.458Z,51.10
2017-06-16T17:13:53.906Z,51.00
2017-06-16T17:16:21.073Z,50.70
2017-06-16T17:18:48.465Z,51.00
2017-06-16T17:21:16.289Z,51.00
2017-06-16T17:23:42.909Z,50.90
2017-06-16T17:26:09.809Z,50.90
2017-06-16T17:28:36.317Z,51.10
2017-06-16T17:31:03.608Z,50.90
2017-06-16T17:33:30.167Z,51.40
2017-06-16T17:35:56.829Z,51.50
2017-06-16T17:38:25.132Z,51.80
2017-06-16T17:40:51.719Z,51.70
2017-06-16T17:43:18.240Z,51.50
2017-06-16T17:45:44.982Z,51.70
2017-06-16T17:48:12.522Z,52.10
2017-06-16T17:50:39.635Z,52.00
2017-06-16T17:53:06.812Z,53.00
2017-06-16T17:55:33.506Z,52.80
2017-06-16T17:57:59.986Z,52.90
2017-06-16T18:00:26.545Z,53.20
2017-06-16T18:02:53.065Z,53.10
2017-06-16T18:05:19.805Z,53.70
2017-06-16T18:07:46.764Z,54.00
2017-06-16T18:10:14.435Z,54.30
2017-06-16T18:12:41.291Z,54.80
2017-06-16T18:15:08.494Z,55.00
2017-06-16T18:17:36.408Z,55.20
2017-06-16T18:20:02.939Z,55.20
2017-06-16T18:22:30.185Z,56.30
2017-06-16T18:24:56.902Z,56.10
2017-06-16T18:27:26.160Z,56.20
2017-06-16T18:29:52.640Z,56.20
2017-06-16T18:32:19.472Z,56.50
2017-06-16T18:34:46.632Z,56.60
2017-06-16T18:37:13.134Z,56.90
2017-06-16T18:39:40.754Z,57.10
2017-06-16T18:42:07.523Z,57.30
2017-06-16T18:44:34.692Z,57.60
2017-06-16T18:47:02.362Z,58.00
2017-06-16T18:49:29.605Z,58.30
2017-06-16T18:51:56.870Z,58.40
2017-06-16T18:54:23.572Z,58.70
2017-06-16T18:56:50.628Z,58.90
2017-06-16T18:59:18.429Z,59.10
2017-06-16T19:01:45.402Z,59.10
2017-06-16T19:04:13.145Z,59.30
2017-06-16T19:06:40.669Z,59.50
2017-06-16T19:09:08.153Z,59.40
2017-06-16T19:11:34.801Z,59.70
2017-06-16T19:14:01.496Z,59.80
2017-06-16T19:16:28.969Z,62.80
2017-06-16T19:18:55.805Z,62.60
2017-06-16T19:21:22.954Z,64.70
2017-06-16T19:23:49.514Z,66.30
2017-06-16T19:26:18.203Z,70.60
2017-06-16T19:28:45.007Z,70.30
2017-06-16T19:31:12.313Z,70.70
2017-06-16T19:33:39.524Z,71.90
2017-06-16T19:36:07.084Z,73.60
2017-06-16T19:38:35.423Z,73.50
2017-06-16T19:41:06.189Z,74.30
2017-06-16T19:43:35.097Z,73.70
2017-06-16T19:46:05.250Z,73.30
2017-06-16T19:48:35.863Z,73.70
2017-06-16T19:51:03.164Z,73.80
2017-06-16T19:53:29.715Z,73.50
2017-06-16T19:55:56.682Z,73.40
2017-06-16T19:58:24.591Z,73.80
2017-06-16T20:00:51.436Z,73.70
2017-06-16T20:03:18.992Z,75.10
2017-06-16T20:05:47.311Z,75.30
2017-06-16T20:08:13.874Z,75.10
2017-06-16T20:10:41.580Z,75.20
2017-06-16T20:13:09.241Z,75.40
2017-06-16T20:15:36.209Z,75.70
2017-06-16T20:18:03.287Z,76.20
2017-06-16T20:20:31.168Z,75.30
2017-06-16T20:22:58.775Z,75.20
2017-06-16T20:25:29.794Z,75.00
2017-06-16T20:27:57.146Z,74.70
2017-06-16T20:30:24.333Z,74.30
2017-06-16T20:32:50.558Z,74.20
2017-06-16T20:35:16.815Z,74.80
2017-06-16T20:37:43.285Z,75.50
2017-06-16T20:43:04.666Z,75.40
2017-06-16T20:45:32.334Z,75.30
2017-06-16T20:47:58.650Z,76.30
2017-06-16T20:50:31.377Z,74.70
2017-06-16T20:52:58.512Z,74.50
2017-06-16T20:55:25.930Z,74.70
2017-06-16T20:57:52.214Z,74.50
2017-06-16T21:00:18.658Z,74.80
2017-06-16T21:02:45.187Z,74.40
2017-06-16T21:05:12.067Z,75.20
2017-06-16T21:07:38.351Z,74.70
2017-06-16T21:10:05.732Z,74.40
2017-06-16T21:12:32.041Z,74.40
2017-06-16T21:14:59.563Z,73.90
2017-06-16T21:17:25.833Z,73.90
2017-06-16T21:19:54.913Z,73.50
2017-06-16T21:22:27.274Z,73.40
2017-06-16T21:24:53.713Z,73.80
2017-06-16T21:27:29.633Z,73.20
2017-06-16T21:29:55.882Z,73.10
2017-06-16T21:32:22.133Z,72.80
2017-06-16T21:34:48.534Z,72.80
2017-06-16T21:37:15.425Z,72.80
2017-06-16T21:39:41.668Z,72.70
2017-06-16T21:42:07.900Z,73.10
2017-06-16T21:44:34.354Z,73.00
2017-06-16T21:47:00.648Z,72.10
2017-06-16T21:49:27.093Z,71.70
2017-06-16T21:51:53.385Z,71.70
2017-06-16T21:54:20.381Z,71.60
2017-06-16T21:56:46.617Z,71.60
2017-06-16T21:59:12.943Z,71.40
2017-06-16T22:01:39.182Z,71.70
2017-06-16T22:04:05.411Z,71.50
2017-06-16T22:06:31.609Z,71.50
2017-06-16T22:08:57.841Z,71.90
2017-06-16T22:11:24.071Z,71.60
2017-06-16T22:13:50.339Z,71.70
2017-06-16T22:16:16.574Z,71.90
2017-06-16T22:18:42.784Z,72.20
2017-06-16T22:21:09.001Z,71.70
2017-06-16T22:23:35.254Z,71.90
2017-06-16T22:26:01.475Z,72.40
2017-06-16T22:28:27.734Z,72.60
2017-06-16T22:30:54.030Z,72.90
2017-06-16T22:33:21.022Z,72.90
2017-06-16T22:35:47.294Z,72.80
2017-06-16T22:38:13.550Z,72.80
2017-06-16T22:40:40.542Z,72.90
2017-06-16T22:43:06.784Z,72.90
2017-06-16T22:45:33.017Z,72.70
2017-06-16T22:47:59.266Z,72.60
2017-06-16T22:50:25.481Z,72.30
2017-06-16T22:52:51.663Z,71.70
2017-06-16T22:55:17.859Z,71.80
2017-06-16T22:57:44.065Z,71.90
2017-06-16T23:00:10.287Z,72.80
2017-06-16T23:02:36.515Z,71.80
2017-06-16T23:05:02.746Z,72.50
2017-06-16T23:07:28.955Z,71.20
2017-06-16T23:09:55.158Z,71.20
2017-06-16T23:12:21.358Z,71.10
2017-06-16T23:14:48.280Z,70.80
2017-06-16T23:17:14.494Z,70.80
2017-06-16T23:19:40.747Z,70.50
2017-06-16T23:22:06.963Z,70.60
2017-06-16T23:24:33.162Z,70.60
2017-06-16T23:26:59.357Z,70.80
2017-06-16T23:29:25.533Z,70.80
2017-06-16T23:31:51.753Z,70.70
2017-06-16T23:34:17.969Z,70.90
2017-06-16T23:36:44.189Z,71.20
2017-06-16T23:39:10.401Z,71.30
2017-06-16T23:41:36.641Z,71.40
2017-06-16T23:44:02.887Z,71.20
2017-06-16T23:46:29.097Z,71.40
2017-06-16T23:48:55.289Z,71.40
2017-06-16T23:51:21.480Z,71.70
2017-06-16T23:53:47.671Z,71.80
2017-06-16T23:56:13.876Z,71.90
2017-06-16T23:58:40.294Z,72.00
